INGA4: Red River, Index, AR

                                SHEF ID:       INGA4     Red River at Index, AR
STATION TYPE: Stream Gauge
Regulating: Stage = 19.80, Flow = 104273

PRECIP STAGE RIV-FLOW WTR-TEMP BAT-LOAD
in ft cfs F volt
Ccp-Rev Ccp-Rev Ccp-Rev Ccp-Rev Ccp-Rev
(America/Chicago)
05/05 00:00 0.00 2.35 7734 73.74 12.69
05/05 01:00 0.00 2.33 7663 73.44 12.68
05/05 02:00 0.00 2.32 7627 73.18 12.66
05/05 03:00 0.00 2.29 7521 72.97 12.64
05/05 04:00 0.00 2.28 7486 72.59 12.63
05/05 05:00 0.00 2.26 7415 72.41 12.61
05/05 06:00 0.00 2.25 7380 72.27 12.59
05/05 07:00 0.00 2.22 7275 72.18 12.57
05/05 08:00 0.00 2.21 7240 72.07 12.58
05/05 09:00 0.00 2.19 7170 72.00 12.68
05/05 10:00 0.00 2.17 7101 71.96 12.88
05/05 11:00 0.00 2.15 7031 72.05 13.15
05/05 12:00 0.00 2.14 6997 72.19 13.45
05/05 13:00 0.00 2.12 6928 72.32 13.50
05/05 14:00 0.00 2.09 6824 72.54 13.45
05/05 15:00 0.00 2.08 6790 72.86 13.36
05/05 16:00 0.00 2.05 6687 73.22 13.36
05/05 17:00 0.00 2.04 6653 73.67 13.34
05/05 18:00 0.00 2.02 6585 73.99 13.18
05/05 19:00 0.00 2.00 6517 74.23 13.16
05/05 20:00 0.00 1.98 6449 74.28 13.01
05/05 21:00 0.00 1.96 6382 74.35 12.77
05/05 22:00 0.00 1.95 6348 74.39 12.73
05/05 23:00 0.00 1.93 6281 74.41 12.71
Data processed at Wed 06May2026 04:11 GMT

NOTICE: If you are parsing this page

Please convert to using our Data API. Starting early 2026 we will be migrating to: https://water.usace.army.mil with modern pages rendered in JavaScript. When this migration completes you will no longer be able to scrape this page! CWMSDataAPI (CDA)

Timeseries IDs (TSIDs)

TSIDs used from left to right in the data table
INDX.Precip-Inc.Total.1Hour.1Hour.Ccp-Rev
INDX.Stage.Inst.1Hour.0.Ccp-Rev
INDX.Flow.Inst.1Hour.0.Ccp-Rev
INDX.Temp-Water.Inst.1Hour.0.Ccp-Rev
INDX.Volt-Battery Load.Inst.1Hour.0.Ccp-Rev

                            

All information presented herein is the property of the government of the United States of America and may be revised or deleted at any time without prior notice. Dissemination of this information without the expressed written consent of the Public Affairs Office, Tulsa District U.S. Army Corps of Engineers is strictly prohibited. These data are gathered electronically and, as presented, have NOT undergone any form of quality control. These data are NOT guaranteed to be valid or correct.